sensor_id;sensor_type;location;lat;lon;timestamp;pressure;altitude;pressure_sealevel;temperature;humidity
79527;BME280;68974;47.754;-3.364;2024-03-07T00:02:10;101528.34;;;8.06;95.88
79527;BME280;68974;47.754;-3.364;2024-03-07T00:04:36;101533.38;;;7.98;95.59
79527;BME280;68974;47.754;-3.364;2024-03-07T00:07:05;101530.09;;;7.96;95.88
79527;BME280;68974;47.754;-3.364;2024-03-07T00:09:34;101532.41;;;8.04;96.08
79527;BME280;68974;47.754;-3.364;2024-03-07T00:12:03;101520.13;;;8.06;96.13
79527;BME280;68974;47.754;-3.364;2024-03-07T00:14:29;101538.19;;;7.91;96.39
79527;BME280;68974;47.754;-3.364;2024-03-07T00:16:56;101524.44;;;8.02;96.13
79527;BME280;68974;47.754;-3.364;2024-03-07T00:19:22;101519.66;;;8.09;95.69
79527;BME280;68974;47.754;-3.364;2024-03-07T00:21:52;101525.69;;;8.11;95.47
79527;BME280;68974;47.754;-3.364;2024-03-07T00:24:18;101524.31;;;8.09;95.76
79527;BME280;68974;47.754;-3.364;2024-03-07T00:26:44;101514.19;;;8.09;95.61
79527;BME280;68974;47.754;-3.364;2024-03-07T00:29:09;101522.06;;;8.06;95.89
79527;BME280;68974;47.754;-3.364;2024-03-07T00:31:35;101516.31;;;8.07;96.10
79527;BME280;68974;47.754;-3.364;2024-03-07T00:34:01;101517.66;;;8.05;96.12
79527;BME280;68974;47.754;-3.364;2024-03-07T00:36:26;101517.66;;;8.05;95.85
79527;BME280;68974;47.754;-3.364;2024-03-07T00:38:52;101516.31;;;8.07;95.75
79527;BME280;68974;47.754;-3.364;2024-03-07T00:41:18;101512.34;;;7.98;96.02
79527;BME280;68974;47.754;-3.364;2024-03-07T00:43:44;101501.25;;;8.05;96.27
79527;BME280;68974;47.754;-3.364;2024-03-07T00:46:10;101506.22;;;8.08;96.09
79527;BME280;68974;47.754;-3.364;2024-03-07T00:48:36;101505.25;;;8.14;95.74
79527;BME280;68974;47.754;-3.364;2024-03-07T00:51:03;101500.94;;;8.18;95.59
79527;BME280;68974;47.754;-3.364;2024-03-07T00:53:29;101503.56;;;8.13;95.48
79527;BME280;68974;47.754;-3.364;2024-03-07T00:55:55;101499.34;;;8.05;95.67
79527;BME280;68974;47.754;-3.364;2024-03-07T00:58:20;101493.03;;;8.05;95.74
79527;BME280;68974;47.754;-3.364;2024-03-07T01:00:46;101490.41;;;8.10;95.38
79527;BME280;68974;47.754;-3.364;2024-03-07T01:03:11;101495.09;;;7.98;95.79
79527;BME280;68974;47.754;-3.364;2024-03-07T01:05:39;101492.63;;;7.96;95.39
79527;BME280;68974;47.754;-3.364;2024-03-07T01:08:05;101487.28;;;7.90;95.57
79527;BME280;68974;47.754;-3.364;2024-03-07T01:10:30;101490.59;;;7.92;95.29
79527;BME280;68974;47.754;-3.364;2024-03-07T01:12:56;101484.69;;;7.83;95.21
79527;BME280;68974;47.754;-3.364;2024-03-07T01:15:26;101486.25;;;7.79;95.75
79527;BME280;68974;47.754;-3.364;2024-03-07T01:17:51;101477.03;;;7.68;95.72
79527;BME280;68974;47.754;-3.364;2024-03-07T01:20:16;101472.63;;;7.67;96.10
79527;BME280;68974;47.754;-3.364;2024-03-07T01:22:42;101479.28;;;7.71;95.51
79527;BME280;68974;47.754;-3.364;2024-03-07T01:25:07;101468.72;;;7.63;95.74
79527;BME280;68974;47.754;-3.364;2024-03-07T01:27:33;101466.50;;;7.60;95.90
79527;BME280;68974;47.754;-3.364;2024-03-07T01:29:58;101464.69;;;7.66;94.88
79527;BME280;68974;47.754;-3.364;2024-03-07T01:32:24;101458.88;;;7.62;95.00
79527;BME280;68974;47.754;-3.364;2024-03-07T01:34:50;101455.06;;;7.63;95.30
79527;BME280;68974;47.754;-3.364;2024-03-07T01:37:15;101459.34;;;7.59;95.18
79527;BME280;68974;47.754;-3.364;2024-03-07T01:39:40;101465.94;;;7.47;95.60
79527;BME280;68974;47.754;-3.364;2024-03-07T01:42:06;101459.94;;;7.33;95.79
79527;BME280;68974;47.754;-3.364;2024-03-07T01:44:33;101457.66;;;7.42;95.38
79527;BME280;68974;47.754;-3.364;2024-03-07T01:47:00;101453.13;;;7.47;95.12
79527;BME280;68974;47.754;-3.364;2024-03-07T01:49:29;101452.03;;;7.48;95.14
79527;BME280;68974;47.754;-3.364;2024-03-07T01:51:56;101455.16;;;7.40;95.37
79527;BME280;68974;47.754;-3.364;2024-03-07T01:54:22;101458.50;;;7.30;95.32
79527;BME280;68974;47.754;-3.364;2024-03-07T01:56:48;101452.91;;;7.37;95.56
79527;BME280;68974;47.754;-3.364;2024-03-07T01:59:15;101447.13;;;7.22;95.46
79527;BME280;68974;47.754;-3.364;2024-03-07T02:01:40;101458.41;;;7.25;95.92
79527;BME280;68974;47.754;-3.364;2024-03-07T02:04:07;101437.88;;;7.23;95.46
79527;BME280;68974;47.754;-3.364;2024-03-07T02:06:33;101436.88;;;7.29;95.32
79527;BME280;68974;47.754;-3.364;2024-03-07T02:08:59;101435.25;;;7.28;95.20
79527;BME280;68974;47.754;-3.364;2024-03-07T02:11:25;101428.56;;;7.24;95.13
79527;BME280;68974;47.754;-3.364;2024-03-07T02:13:50;101426.56;;;7.19;95.19
79527;BME280;68974;47.754;-3.364;2024-03-07T02:16:16;101423.72;;;7.14;95.35
79527;BME280;68974;47.754;-3.364;2024-03-07T02:18:42;101415.41;;;7.21;94.89
79527;BME280;68974;47.754;-3.364;2024-03-07T02:21:08;101407.34;;;7.14;94.93
79527;BME280;68974;47.754;-3.364;2024-03-07T02:23:34;101407.63;;;7.01;95.17
79527;BME280;68974;47.754;-3.364;2024-03-07T02:26:00;101408.78;;;7.05;95.58
79527;BME280;68974;47.754;-3.364;2024-03-07T02:28:25;101404.75;;;7.08;95.16
79527;BME280;68974;47.754;-3.364;2024-03-07T02:30:51;101395.47;;;7.09;95.04
79527;BME280;68974;47.754;-3.364;2024-03-07T02:33:16;101397.75;;;7.12;94.86
79527;BME280;68974;47.754;-3.364;2024-03-07T02:35:42;101386.81;;;7.12;94.60
79527;BME280;68974;47.754;-3.364;2024-03-07T02:38:07;101390.22;;;7.19;93.78
79527;BME280;68974;47.754;-3.364;2024-03-07T02:40:33;101387.75;;;7.17;93.83
79527;BME280;68974;47.754;-3.364;2024-03-07T02:42:59;101370.81;;;7.04;93.86
79527;BME280;68974;47.754;-3.364;2024-03-07T02:45:25;101374.22;;;7.11;93.46
79527;BME280;68974;47.754;-3.364;2024-03-07T02:47:51;101371.03;;;7.02;93.45
79527;BME280;68974;47.754;-3.364;2024-03-07T02:50:17;101371.16;;;6.95;93.45
79527;BME280;68974;47.754;-3.364;2024-03-07T02:52:42;101378.31;;;6.96;94.06
79527;BME280;68974;47.754;-3.364;2024-03-07T02:55:08;101361.91;;;6.96;94.06
79527;BME280;68974;47.754;-3.364;2024-03-07T02:57:36;101359.91;;;6.92;93.69
79527;BME280;68974;47.754;-3.364;2024-03-07T03:00:02;101362.19;;;6.83;94.28
79527;BME280;68974;47.754;-3.364;2024-03-07T03:02:28;101356.25;;;6.86;93.82
79527;BME280;68974;47.754;-3.364;2024-03-07T03:04:54;101355.06;;;6.82;94.12
79527;BME280;68974;47.754;-3.364;2024-03-07T03:07:20;101350.03;;;7.03;93.16
79527;BME280;68974;47.754;-3.364;2024-03-07T03:09:45;101338.56;;;6.89;92.88
79527;BME280;68974;47.754;-3.364;2024-03-07T03:12:11;101339.25;;;6.84;93.64
79527;BME280;68974;47.754;-3.364;2024-03-07T03:14:37;101340.69;;;6.87;93.63
79527;BME280;68974;47.754;-3.364;2024-03-07T03:17:03;101341.81;;;6.74;93.35
79527;BME280;68974;47.754;-3.364;2024-03-07T03:19:28;101341.31;;;6.77;93.61
79527;BME280;68974;47.754;-3.364;2024-03-07T03:21:54;101330.88;;;6.74;93.31
79527;BME280;68974;47.754;-3.364;2024-03-07T03:24:21;101326.81;;;6.88;93.09
79527;BME280;68974;47.754;-3.364;2024-03-07T03:26:47;101318.63;;;6.77;93.17
79527;BME280;68974;47.754;-3.364;2024-03-07T03:29:13;101314.50;;;6.74;92.90
79527;BME280;68974;47.754;-3.364;2024-03-07T03:31:39;101318.13;;;6.80;92.61
79527;BME280;68974;47.754;-3.364;2024-03-07T03:34:05;101319.75;;;6.64;93.34
79527;BME280;68974;47.754;-3.364;2024-03-07T03:36:30;101309.50;;;6.71;92.96
79527;BME280;68974;47.754;-3.364;2024-03-07T03:38:56;101312.47;;;6.70;92.86
79527;BME280;68974;47.754;-3.364;2024-03-07T03:41:22;101306.78;;;6.71;92.50
79527;BME280;68974;47.754;-3.364;2024-03-07T03:43:48;101301.91;;;6.73;92.55
79527;BME280;68974;47.754;-3.364;2024-03-07T03:46:14;101296.47;;;6.73;92.41
79527;BME280;68974;47.754;-3.364;2024-03-07T03:48:40;101299.91;;;6.69;92.23
79527;BME280;68974;47.754;-3.364;2024-03-07T03:51:09;101295.28;;;6.69;92.20
79527;BME280;68974;47.754;-3.364;2024-03-07T03:53:37;101302.28;;;6.65;91.70
79527;BME280;68974;47.754;-3.364;2024-03-07T03:56:03;101291.75;;;6.57;92.74
79527;BME280;68974;47.754;-3.364;2024-03-07T03:58:31;101288.53;;;6.60;91.85
79527;BME280;68974;47.754;-3.364;2024-03-07T04:00:57;101285.78;;;6.60;91.48
79527;BME280;68974;47.754;-3.364;2024-03-07T04:03:24;101279.16;;;6.56;91.94
79527;BME280;68974;47.754;-3.364;2024-03-07T04:05:49;101270.63;;;6.52;91.59
79527;BME280;68974;47.754;-3.364;2024-03-07T04:08:15;101275.16;;;6.47;92.41
79527;BME280;68974;47.754;-3.364;2024-03-07T04:10:40;101268.03;;;6.46;92.40
79527;BME280;68974;47.754;-3.364;2024-03-07T04:13:06;101259.47;;;6.54;92.00
79527;BME280;68974;47.754;-3.364;2024-03-07T04:15:33;101259.47;;;6.54;91.13
79527;BME280;68974;47.754;-3.364;2024-03-07T04:17:58;101258.03;;;6.63;91.04
79527;BME280;68974;47.754;-3.364;2024-03-07T04:20:24;101261.94;;;6.56;91.33
79527;BME280;68974;47.754;-3.364;2024-03-07T04:22:50;101253.63;;;6.62;90.72
79527;BME280;68974;47.754;-3.364;2024-03-07T04:25:16;101254.69;;;6.61;90.51
79527;BME280;68974;47.754;-3.364;2024-03-07T04:27:42;101252.69;;;6.57;90.14
79527;BME280;68974;47.754;-3.364;2024-03-07T04:30:08;101255.19;;;6.58;90.37
79527;BME280;68974;47.754;-3.364;2024-03-07T04:32:39;101243.78;;;6.61;89.94
79527;BME280;68974;47.754;-3.364;2024-03-07T04:35:07;101247.09;;;6.63;89.27
79527;BME280;68974;47.754;-3.364;2024-03-07T04:37:36;101244.94;;;6.65;89.40
79527;BME280;68974;47.754;-3.364;2024-03-07T04:40:07;101237.66;;;6.54;88.71
79527;BME280;68974;47.754;-3.364;2024-03-07T04:42:49;101240.06;;;6.39;89.22
79527;BME280;68974;47.754;-3.364;2024-03-07T04:45:15;101236.44;;;6.50;88.99
79527;BME280;68974;47.754;-3.364;2024-03-07T04:47:41;101238.94;;;6.51;88.84
79527;BME280;68974;47.754;-3.364;2024-03-07T04:50:11;101237.91;;;6.41;88.68
79527;BME280;68974;47.754;-3.364;2024-03-07T04:52:38;101234.91;;;6.54;87.86
79527;BME280;68974;47.754;-3.364;2024-03-07T04:55:07;101235.78;;;6.43;87.78
79527;BME280;68974;47.754;-3.364;2024-03-07T04:57:39;101230.59;;;6.30;88.03
79527;BME280;68974;47.754;-3.364;2024-03-07T05:00:10;101238.91;;;6.35;88.29
79527;BME280;68974;47.754;-3.364;2024-03-07T05:02:43;101230.22;;;6.38;87.46
79527;BME280;68974;47.754;-3.364;2024-03-07T05:05:08;101223.59;;;6.22;87.80
79527;BME280;68974;47.754;-3.364;2024-03-07T05:07:34;101223.38;;;6.24;87.91
79527;BME280;68974;47.754;-3.364;2024-03-07T05:10:07;101228.34;;;6.27;87.28
79527;BME280;68974;47.754;-3.364;2024-03-07T05:12:33;101220.53;;;6.30;87.05
79527;BME280;68974;47.754;-3.364;2024-03-07T05:14:59;101224.53;;;6.28;86.18
79527;BME280;68974;47.754;-3.364;2024-03-07T05:17:24;101224.84;;;6.43;86.31
79527;BME280;68974;47.754;-3.364;2024-03-07T05:19:50;101225.25;;;6.35;86.29
79527;BME280;68974;47.754;-3.364;2024-03-07T05:22:15;101215.66;;;6.21;86.11
79527;BME280;68974;47.754;-3.364;2024-03-07T05:24:42;101216.34;;;6.28;86.34
79527;BME280;68974;47.754;-3.364;2024-03-07T05:27:08;101213.63;;;6.28;85.84
79527;BME280;68974;47.754;-3.364;2024-03-07T05:29:36;101216.69;;;6.31;85.68
79527;BME280;68974;47.754;-3.364;2024-03-07T05:32:23;101213.75;;;6.33;85.56
79527;BME280;68974;47.754;-3.364;2024-03-07T05:34:49;101213.66;;;6.16;85.35
79527;BME280;68974;47.754;-3.364;2024-03-07T05:37:15;101210.59;;;6.13;86.07
79527;BME280;68974;47.754;-3.364;2024-03-07T05:39:40;101198.59;;;6.14;85.64
79527;BME280;68974;47.754;-3.364;2024-03-07T05:42:06;101202.41;;;6.13;85.46
79527;BME280;68974;47.754;-3.364;2024-03-07T05:44:32;101195.44;;;6.05;86.04
79527;BME280;68974;47.754;-3.364;2024-03-07T05:46:58;101200.88;;;6.05;85.30
79527;BME280;68974;47.754;-3.364;2024-03-07T05:49:23;101199.94;;;5.99;85.79
79527;BME280;68974;47.754;-3.364;2024-03-07T05:51:49;101196.59;;;5.97;85.75
79527;BME280;68974;47.754;-3.364;2024-03-07T05:54:16;101192.22;;;5.96;85.42
79527;BME280;68974;47.754;-3.364;2024-03-07T05:56:41;101191.16;;;5.97;84.88
79527;BME280;68974;47.754;-3.364;2024-03-07T05:59:08;101198.03;;;6.00;84.50
79527;BME280;68974;47.754;-3.364;2024-03-07T06:01:37;101180.84;;;5.99;84.96
79527;BME280;68974;47.754;-3.364;2024-03-07T06:04:03;101187.25;;;5.93;84.39
79527;BME280;68974;47.754;-3.364;2024-03-07T06:06:36;101181.09;;;5.98;84.32
79527;BME280;68974;47.754;-3.364;2024-03-07T06:09:03;101185.38;;;5.94;84.03
79527;BME280;68974;47.754;-3.364;2024-03-07T06:11:38;101173.97;;;5.85;84.27
79527;BME280;68974;47.754;-3.364;2024-03-07T06:14:05;101175.25;;;5.83;84.63
79527;BME280;68974;47.754;-3.364;2024-03-07T06:16:37;101175.63;;;5.86;84.44
79527;BME280;68974;47.754;-3.364;2024-03-07T06:19:04;101188.91;;;5.83;84.27
79527;BME280;68974;47.754;-3.364;2024-03-07T06:21:34;101176.47;;;5.87;84.00
79527;BME280;68974;47.754;-3.364;2024-03-07T06:24:00;101170.31;;;5.80;83.64
79527;BME280;68974;47.754;-3.364;2024-03-07T06:29:04;101170.66;;;5.83;83.22
79527;BME280;68974;47.754;-3.364;2024-03-07T06:31:30;101168.63;;;5.79;83.25
79527;BME280;68974;47.754;-3.364;2024-03-07T06:33:56;101172.44;;;5.78;83.38
79527;BME280;68974;47.754;-3.364;2024-03-07T06:36:22;101164.50;;;5.76;83.31
79527;BME280;68974;47.754;-3.364;2024-03-07T06:38:48;101164.63;;;5.81;82.54
79527;BME280;68974;47.754;-3.364;2024-03-07T06:41:14;101161.41;;;5.84;82.47
79527;BME280;68974;47.754;-3.364;2024-03-07T06:43:39;101166.50;;;5.81;82.51
79527;BME280;68974;47.754;-3.364;2024-03-07T06:46:05;101163.31;;;5.72;83.22
79527;BME280;68974;47.754;-3.364;2024-03-07T06:48:31;101164.50;;;5.76;83.22
79527;BME280;68974;47.754;-3.364;2024-03-07T06:50:57;101161.06;;;5.81;82.80
79527;BME280;68974;47.754;-3.364;2024-03-07T06:53:22;101161.91;;;5.81;82.01
79527;BME280;68974;47.754;-3.364;2024-03-07T06:55:52;101173.97;;;5.85;81.20
79527;BME280;68974;47.754;-3.364;2024-03-07T06:58:20;101164.28;;;5.89;81.29
79527;BME280;68974;47.754;-3.364;2024-03-07T07:00:45;101159.75;;;5.83;81.06
79527;BME280;68974;47.754;-3.364;2024-03-07T07:03:11;101152.75;;;5.87;80.80
79527;BME280;68974;47.754;-3.364;2024-03-07T07:05:39;101155.50;;;5.87;80.62
79527;BME280;68974;47.754;-3.364;2024-03-07T07:08:06;101157.38;;;5.98;80.25
79527;BME280;68974;47.754;-3.364;2024-03-07T07:10:32;101159.66;;;5.90;79.60
79527;BME280;68974;47.754;-3.364;2024-03-07T07:12:58;101158.31;;;5.92;79.84
79527;BME280;68974;47.754;-3.364;2024-03-07T07:15:23;101147.66;;;5.79;79.94
79527;BME280;68974;47.754;-3.364;2024-03-07T07:17:49;101149.91;;;5.82;80.30
79527;BME280;68974;47.754;-3.364;2024-03-07T07:20:18;101141.03;;;5.75;79.31
79527;BME280;68974;47.754;-3.364;2024-03-07T07:22:47;101146.81;;;5.79;79.06
79527;BME280;68974;47.754;-3.364;2024-03-07T07:25:16;101138.16;;;5.82;78.81
79527;BME280;68974;47.754;-3.364;2024-03-07T07:27:46;101140.78;;;5.88;78.60
79527;BME280;68974;47.754;-3.364;2024-03-07T07:30:14;101138.31;;;5.87;78.65
79527;BME280;68974;47.754;-3.364;2024-03-07T07:32:40;101144.34;;;6.00;78.14
79527;BME280;68974;47.754;-3.364;2024-03-07T07:35:07;101130.94;;;5.99;77.95
79527;BME280;68974;47.754;-3.364;2024-03-07T07:37:35;101138.38;;;6.03;77.60
79527;BME280;68974;47.754;-3.364;2024-03-07T07:40:02;101134.09;;;6.07;77.21
79527;BME280;68974;47.754;-3.364;2024-03-07T07:42:27;101126.13;;;6.18;77.12
79527;BME280;68974;47.754;-3.364;2024-03-07T07:44:53;101120.91;;;6.16;76.27
79527;BME280;68974;47.754;-3.364;2024-03-07T07:47:18;101117.00;;;6.12;77.13
79527;BME280;68974;47.754;-3.364;2024-03-07T07:49:44;101116.38;;;6.22;75.94
79527;BME280;68974;47.754;-3.364;2024-03-07T07:52:09;101109.63;;;6.24;75.80
79527;BME280;68974;47.754;-3.364;2024-03-07T07:54:35;101104.91;;;6.20;75.41
79527;BME280;68974;47.754;-3.364;2024-03-07T07:57:00;101113.38;;;6.35;75.37
79527;BME280;68974;47.754;-3.364;2024-03-07T07:59:26;101108.41;;;6.32;74.93
79527;BME280;68974;47.754;-3.364;2024-03-07T08:01:51;101103.63;;;6.39;74.77
79527;BME280;68974;47.754;-3.364;2024-03-07T08:04:21;101100.31;;;6.37;74.34
79527;BME280;68974;47.754;-3.364;2024-03-07T08:06:47;101100.41;;;6.42;74.49
79527;BME280;68974;47.754;-3.364;2024-03-07T08:09:12;101098.28;;;6.44;74.13
79527;BME280;68974;47.754;-3.364;2024-03-07T08:11:42;101092.41;;;6.52;74.09
79527;BME280;68974;47.754;-3.364;2024-03-07T08:14:07;101090.44;;;6.64;73.28
79527;BME280;68974;47.754;-3.364;2024-03-07T08:16:33;101068.59;;;6.64;73.27
79527;BME280;68974;47.754;-3.364;2024-03-07T08:18:59;101077.19;;;6.56;73.54
79527;BME280;68974;47.754;-3.364;2024-03-07T08:21:24;101060.97;;;6.66;73.34
79527;BME280;68974;47.754;-3.364;2024-03-07T08:23:50;101062.31;;;6.80;72.78
79527;BME280;68974;47.754;-3.364;2024-03-07T08:26:15;101064.06;;;6.86;72.66
79527;BME280;68974;47.754;-3.364;2024-03-07T08:28:41;101053.03;;;6.81;72.69
79527;BME280;68974;47.754;-3.364;2024-03-07T08:31:06;101055.50;;;7.00;71.86
79527;BME280;68974;47.754;-3.364;2024-03-07T08:33:32;101056.69;;;7.04;71.33
79527;BME280;68974;47.754;-3.364;2024-03-07T08:35:58;101049.56;;;7.03;71.51
79527;BME280;68974;47.754;-3.364;2024-03-07T08:38:24;101050.78;;;7.12;71.63
79527;BME280;68974;47.754;-3.364;2024-03-07T08:40:50;101046.16;;;7.12;71.05
79527;BME280;68974;47.754;-3.364;2024-03-07T08:43:15;101037.00;;;7.23;70.82
79527;BME280;68974;47.754;-3.364;2024-03-07T08:45:41;101041.22;;;7.31;71.02
79527;BME280;68974;47.754;-3.364;2024-03-07T08:48:07;101017.81;;;7.57;69.54
79527;BME280;68974;47.754;-3.364;2024-03-07T08:50:34;101022.28;;;7.90;69.23
79527;BME280;68974;47.754;-3.364;2024-03-07T08:53:03;101016.78;;;8.38;67.13
79527;BME280;68974;47.754;-3.364;2024-03-07T08:55:32;101013.69;;;8.61;65.88
79527;BME280;68974;47.754;-3.364;2024-03-07T08:57:57;101005.75;;;8.60;65.85
79527;BME280;68974;47.754;-3.364;2024-03-07T09:00:23;101002.78;;;8.66;64.97
79527;BME280;68974;47.754;-3.364;2024-03-07T09:02:59;101008.22;;;8.30;65.81
79527;BME280;68974;47.754;-3.364;2024-03-07T09:05:25;101006.03;;;8.32;66.67
79527;BME280;68974;47.754;-3.364;2024-03-07T09:07:52;101004.94;;;8.59;66.31
79527;BME280;68974;47.754;-3.364;2024-03-07T09:10:18;100997.97;;;8.79;64.70
79527;BME280;68974;47.754;-3.364;2024-03-07T09:12:44;100992.00;;;9.39;63.07
79527;BME280;68974;47.754;-3.364;2024-03-07T09:15:11;100992.97;;;9.70;62.92
79527;BME280;68974;47.754;-3.364;2024-03-07T09:17:37;100990.25;;;9.85;61.30
79527;BME280;68974;47.754;-3.364;2024-03-07T09:20:04;100999.06;;;9.97;61.21
79527;BME280;68974;47.754;-3.364;2024-03-07T09:22:31;101001.22;;;9.75;60.45
79527;BME280;68974;47.754;-3.364;2024-03-07T09:24:57;100994.84;;;9.64;61.35
79527;BME280;68974;47.754;-3.364;2024-03-07T09:27:22;100994.47;;;9.40;61.60
79527;BME280;68974;47.754;-3.364;2024-03-07T09:29:48;100990.59;;;9.31;62.32
79527;BME280;68974;47.754;-3.364;2024-03-07T09:32:14;100989.53;;;9.32;62.23
79527;BME280;68974;47.754;-3.364;2024-03-07T09:34:39;100991.19;;;9.43;62.29
79527;BME280;68974;47.754;-3.364;2024-03-07T09:37:05;100996.56;;;9.18;62.21
79527;BME280;68974;47.754;-3.364;2024-03-07T09:39:34;100984.91;;;10.25;59.80
79527;BME280;68974;47.754;-3.364;2024-03-07T09:42:01;100990.41;;;11.70;55.92
79527;BME280;68974;47.754;-3.364;2024-03-07T09:44:28;100978.50;;;12.92;51.54
79527;BME280;68974;47.754;-3.364;2024-03-07T09:46:55;100975.06;;;13.58;49.81
79527;BME280;68974;47.754;-3.364;2024-03-07T09:49:21;100968.25;;;13.69;48.96
79527;BME280;68974;47.754;-3.364;2024-03-07T09:51:47;100962.31;;;13.80;48.53
79527;BME280;68974;47.754;-3.364;2024-03-07T09:54:22;100955.75;;;13.76;48.89
79527;BME280;68974;47.754;-3.364;2024-03-07T09:56:54;100948.16;;;14.06;47.88
79527;BME280;68974;47.754;-3.364;2024-03-07T09:59:24;100952.03;;;14.05;47.43
79527;BME280;68974;47.754;-3.364;2024-03-07T10:01:56;100948.81;;;14.16;53.95
79527;BME280;68974;47.754;-3.364;2024-03-07T10:04:38;100942.72;;;14.33;46.51
79527;BME280;68974;47.754;-3.364;2024-03-07T10:07:07;100948.66;;;14.26;46.42
79527;BME280;68974;47.754;-3.364;2024-03-07T10:09:37;100938.84;;;15.26;45.37
79527;BME280;68974;47.754;-3.364;2024-03-07T10:12:03;100942.53;;;15.35;44.11
79527;BME280;68974;47.754;-3.364;2024-03-07T10:14:32;100939.06;;;15.02;45.45
79527;BME280;68974;47.754;-3.364;2024-03-07T10:16:58;100927.53;;;14.82;44.91
79527;BME280;68974;47.754;-3.364;2024-03-07T10:19:23;100928.81;;;15.03;45.01
79527;BME280;68974;47.754;-3.364;2024-03-07T10:21:49;100923.38;;;15.25;44.46
79527;BME280;68974;47.754;-3.364;2024-03-07T10:24:17;100923.91;;;15.00;44.02
79527;BME280;68974;47.754;-3.364;2024-03-07T10:26:43;100921.91;;;15.69;42.67
79527;BME280;68974;47.754;-3.364;2024-03-07T10:29:08;100916.09;;;15.56;42.18
79527;BME280;68974;47.754;-3.364;2024-03-07T10:31:34;100918.28;;;15.95;41.33
79527;BME280;68974;47.754;-3.364;2024-03-07T10:34:03;100913.56;;;16.85;39.74
79527;BME280;68974;47.754;-3.364;2024-03-07T10:36:29;100911.09;;;15.94;40.23
79527;BME280;68974;47.754;-3.364;2024-03-07T10:38:59;100905.41;;;15.50;41.20
79527;BME280;68974;47.754;-3.364;2024-03-07T10:41:41;100909.34;;;15.08;41.94
79527;BME280;68974;47.754;-3.364;2024-03-07T10:44:11;100905.84;;;15.30;41.59
79527;BME280;68974;47.754;-3.364;2024-03-07T10:46:38;100904.00;;;15.39;41.43
79527;BME280;68974;47.754;-3.364;2024-03-07T10:49:06;100900.91;;;15.40;41.50
79527;BME280;68974;47.754;-3.364;2024-03-07T10:51:40;100900.53;;;15.33;41.30
79527;BME280;68974;47.754;-3.364;2024-03-07T10:54:20;100894.25;;;14.87;41.77
79527;BME280;68974;47.754;-3.364;2024-03-07T10:59:18;100877.38;;;15.02;41.31
79527;BME280;68974;47.754;-3.364;2024-03-07T11:04:22;100876.88;;;15.13;40.23
79527;BME280;68974;47.754;-3.364;2024-03-07T11:06:48;100865.72;;;15.05;39.59
79527;BME280;68974;47.754;-3.364;2024-03-07T11:09:15;100859.72;;;15.25;38.56
79527;BME280;68974;47.754;-3.364;2024-03-07T11:11:48;100848.88;;;14.88;38.72
79527;BME280;68974;47.754;-3.364;2024-03-07T11:14:14;100858.09;;;15.51;37.94
79527;BME280;68974;47.754;-3.364;2024-03-07T11:16:42;100850.75;;;15.69;37.77
79527;BME280;68974;47.754;-3.364;2024-03-07T11:21:50;100843.53;;;14.50;39.41
79527;BME280;68974;47.754;-3.364;2024-03-07T11:24:26;100836.19;;;15.14;38.63
79527;BME280;68974;47.754;-3.364;2024-03-07T11:26:55;100831.75;;;15.76;37.80
79527;BME280;68974;47.754;-3.364;2024-03-07T11:29:49;100842.88;;;15.63;38.00
79527;BME280;68974;47.754;-3.364;2024-03-07T11:32:19;100851.53;;;15.34;38.73
79527;BME280;68974;47.754;-3.364;2024-03-07T11:34:47;100831.00;;;15.48;37.86
79527;BME280;68974;47.754;-3.364;2024-03-07T11:37:19;100819.16;;;15.21;37.87
79527;BME280;68974;47.754;-3.364;2024-03-07T11:39:49;100816.31;;;15.62;37.03
79527;BME280;68974;47.754;-3.364;2024-03-07T11:42:26;100821.09;;;15.70;36.69
79527;BME280;68974;47.754;-3.364;2024-03-07T11:44:57;100813.38;;;15.58;36.86
79527;BME280;68974;47.754;-3.364;2024-03-07T11:47:24;100811.03;;;15.96;36.54
79527;BME280;68974;47.754;-3.364;2024-03-07T11:49:51;100797.13;;;17.19;34.29
79527;BME280;68974;47.754;-3.364;2024-03-07T11:52:20;100801.88;;;17.53;32.55
79527;BME280;68974;47.754;-3.364;2024-03-07T11:54:46;100786.38;;;17.61;32.89
79527;BME280;68974;47.754;-3.364;2024-03-07T11:57:18;100773.94;;;18.01;33.24
79527;BME280;68974;47.754;-3.364;2024-03-07T11:59:52;100792.75;;;17.87;32.60
79527;BME280;68974;47.754;-3.364;2024-03-07T12:02:18;100764.31;;;17.64;32.70
79527;BME280;68974;47.754;-3.364;2024-03-07T12:04:47;100776.88;;;17.79;33.04
79527;BME280;68974;47.754;-3.364;2024-03-07T12:07:14;100770.50;;;17.18;33.15
79527;BME280;68974;47.754;-3.364;2024-03-07T12:09:44;100757.94;;;17.38;33.22
79527;BME280;68974;47.754;-3.364;2024-03-07T12:12:16;100764.44;;;17.94;32.79
79527;BME280;68974;47.754;-3.364;2024-03-07T12:14:42;100750.38;;;18.07;32.40
79527;BME280;68974;47.754;-3.364;2024-03-07T12:17:08;100750.66;;;18.14;31.71
79527;BME280;68974;47.754;-3.364;2024-03-07T12:19:34;100747.09;;;16.85;32.69
79527;BME280;68974;47.754;-3.364;2024-03-07T12:22:03;100734.44;;;17.61;33.12
79527;BME280;68974;47.754;-3.364;2024-03-07T12:24:29;100729.19;;;17.60;32.08
79527;BME280;68974;47.754;-3.364;2024-03-07T12:27:24;100730.06;;;18.91;31.18
79527;BME280;68974;47.754;-3.364;2024-03-07T12:29:50;100728.50;;;19.02;30.21
79527;BME280;68974;47.754;-3.364;2024-03-07T12:32:17;100721.97;;;17.93;30.87
79527;BME280;68974;47.754;-3.364;2024-03-07T12:34:43;100706.00;;;17.21;32.93
79527;BME280;68974;47.754;-3.364;2024-03-07T12:37:12;100705.47;;;15.97;34.80
79527;BME280;68974;47.754;-3.364;2024-03-07T12:39:42;100720.53;;;14.89;36.70
79527;BME280;68974;47.754;-3.364;2024-03-07T12:42:18;100711.78;;;15.09;37.08
79527;BME280;68974;47.754;-3.364;2024-03-07T12:44:46;100693.31;;;15.18;37.85
79527;BME280;68974;47.754;-3.364;2024-03-07T12:47:15;100688.84;;;15.08;37.97
79527;BME280;68974;47.754;-3.364;2024-03-07T12:49:42;100690.84;;;14.12;38.58
79527;BME280;68974;47.754;-3.364;2024-03-07T12:52:08;100691.75;;;13.80;39.76
79527;BME280;68974;47.754;-3.364;2024-03-07T12:54:37;100688.47;;;13.46;39.34
79527;BME280;68974;47.754;-3.364;2024-03-07T12:57:06;100685.50;;;13.42;39.70
79527;BME280;68974;47.754;-3.364;2024-03-07T12:59:34;100668.88;;;13.48;39.62